Airfield :
LOGIN :

Register | Disclaimer

   EN    FR    IT 

 










Legend :    VFR   Marginal VFR   IFR   Intensive IFR   Very Intensive IFR
Visi :
Ceiling :
>= 8 km
>= 3000ft
5 to 8 km
1000 to 3000 ft
1500m to 5 km
500 to 1000 ft
800 to 1500m
200 to 500 ft
< 800m
< 200 ft
Symbols :   Thunderstorms  Fog  Heavy snow  Heavy precipitations  Wind > 20 kt
SIGMETs :     Misc.  Thunderstorms  Icing  Turbulence  Mountain Waves  Volcanic Ashes







- Airport Elevation : 138 ft
- IATA code : BIO


LEBB - Bilbao

CURRENT METAR :
  • 161900Z 30011KT 250V330 9999 FEW014 18/16 Q1018 NOSIG

EXPIRED METARs :
  • 161830Z 30012KT 9999 FEW014 19/16 Q1018 NOSIG
  • 161800Z 30012KT 9999 FEW015 20/15 Q1018 NOSIG
  • 161730Z 30010KT 260V330 CAVOK 21/16 Q1017 NOSIG
  • 161700Z 29009KT 250V320 CAVOK 22/16 Q1017 NOSIG

TAF TAF LEBB
Valid from the 16 at 18:00 until the 17 at 18:00 UTC


161700Z 1618/1718 VRB03KT CAVOK TX28/1712Z TN12/1704Z
TEMPO 1618/1622 30010KT
PROB30
TEMPO 1621/1706 3000 BR BCFG
BECMG 1712/1714 30010KT
No reported NOTAMs for that airfield.
1 SIGMET reported for the Madrid FIR (LECM) :
 
Severe turbulence
LECM SIGMET 1 VALID 161800/162200 LEVA
LECM MADRID UIR SEV TURB FCST WI N3712 W00721 - N3709 W00701 - N3734 W00633 - N3621 W00257 - N3717 W00146 - N3938 W00703 - N3936 W00723 - N3712 W00721 FL290/350 MOV NE NC=



MET'MAP, your aeronautical weather chart ! - Copyright ORBIFLY December 2007 - Disclaimer

ORBIFLY MET'MAP TEAM :

Programming & Development : Alexandra Zaïnal
Concept & Development : Baudouin d'Aumeries
Co-Development & Prog : Marc-Olivier Méhu
Technical & hardware support : Manuel Goepfert

Contact : metmap@orbifly.com




SOURCES & CREDITS :

   NOAA